Flight Track Log - Related Links

Times and Time Zones

All times are in EDT time to prevent confusion due to time zone crossing. See the DAL1562 flight status page for this flight to view local times or setup timezone preferences in your user account.

Time Position Orientation Groundspeed Altitude Reporting Facility
EDT Latitude Longitude Course Direction KTS MPH feet Rate Location/Type
Sun 04:47:42 PM 39.8667 -75.2667 242° Southwest 159 183 800  Level Philadelphia TRACON
Sun 04:48:00 PM 39.8586 -75.2867 242° Southwest 154 177 1,300 1,385 Climbing FAA TRACON SMA TRACON (SMA)
Sun 04:48:21 PM 39.8536 -75.3147 257° West 221 254 1,700 1,650 Climbing FAA TRACON SMA TRACON (SMA)
Sun 04:48:40 PM 39.8489 -75.3372 255° West 232 267 2,400 3,077 Climbing FAA TRACON SMA TRACON (SMA)
Sun 04:49:00 PM 39.8428 -75.3661 255° West 248 285 3,700 3,659 Climbing FAA TRACON SMA TRACON (SMA)
Sun 04:49:21 PM 39.8356 -75.3997 254° West 251 289 4,900 3,750 Climbing FAA TRACON SMA TRACON (SMA)
Sun 04:49:40 PM 39.8303 -75.4244 254° West 254 292 6,200 3,900 Climbing FAA TRACON SMA TRACON (SMA)
Sun 04:50:01 PM 39.8225 -75.4525 250° West 236 272 7,500 3,366 Climbing FAA TRACON SMA TRACON (SMA)
Sun 04:50:21 PM 39.8222 -75.4836 269° West 233 268 8,500 2,100 Climbing FAA TRACON SMA TRACON (SMA)
Sun 04:50:41 PM 39.8281 -75.5050 290° West 227 261 8,900 900 Climbing FAA TRACON SMA TRACON (SMA)
Sun 04:51:01 PM 39.8403 -75.5275 305° West 232 267 9,100 1,500 Climbing FAA TRACON SMA TRACON (SMA)
Sun 04:51:21 PM 39.8556 -75.5550 306° West 236 272 9,900 2,250 Climbing FAA TRACON SMA TRACON (SMA)
Sun 04:51:41 PM 39.8658 -75.5753 303° West 238 274 10,600 1,692 Climbing FAA TRACON SMA TRACON (SMA)
Sun 04:52:00 PM 39.8794 -75.6014 304° West 255 293 11,000 1,077 Climbing FAA TRACON SMA TRACON (SMA)
Sun 04:52:20 PM 39.8939 -75.6292 304° West 297 342 11,300 1,171 Climbing FAA TRACON SMA TRACON (SMA)
Sun 04:52:41 PM 39.9119 -75.6644 304° West 320 368 11,800 1,350 Climbing FAA TRACON SMA TRACON (SMA)
Sun 04:53:00 PM 39.9189 -75.7033 283° West 340 391 12,200 1,650 Climbing FAA TRACON SMA TRACON (SMA)
Sun 04:53:21 PM 39.9172 -75.7425 267° West 351 404 12,900 2,488 Climbing FAA TRACON SMA TRACON (SMA)
Sun 04:53:41 PM 39.9147 -75.7911 266° West 357 411 13,900 2,286 Climbing FAA TRACON SMA TRACON (SMA)
Sun 04:54:03 PM 39.9136 -75.8328 268° West 360 414 14,500 2,000 Climbing FAA TRACON SMA TRACON (SMA)
Sun 04:54:23 PM 39.9114 -75.8825 267° West 366 421 15,300 2,757 Climbing FAA TRACON SMA TRACON (SMA)
Sun 04:54:40 PM 39.9119 -75.9236 271° West 371 427 16,200 2,684 Climbing FAA TRACON SMA TRACON (SMA)
Sun 04:55:01 PM 39.9114 -75.9678 269° West 373 429 17,000 2,195 Climbing FAA TRACON SMA TRACON (SMA)
Sun 04:55:21 PM 39.9106 -76.0094 269° West 375 432 17,700 1,692 Climbing FAA TRACON SMA TRACON (SMA)
Sun 04:55:40 PM 39.9097 -76.0519 269° West 378 435 18,100 615 Climbing FAA TRACON SMA TRACON (SMA)
Sun 04:56:00 PM 39.9097 -76.0519 303° West 378 435 18,100 1,565 Level FAA TRACON SMA TRACON (SMA)
Sun 04:57:35 PM 39.9139 -76.3272 271° West 409 471 21,100 1,846 Climbing New York Center
Sun 04:58:36 PM 39.9194 -76.4739 273° West 409 471 22,900 1,438 Climbing New York Center
Sun 04:59:36 PM 39.9247 -76.6206 273° West 414 476 24,000 559 Climbing New York Center
Sun 05:00:34 PM 39.9383 -76.7653 277° West 408 470 24,000 458 Level New York Center
Sun 05:01:34 PM 39.9642 -76.9083 283° West 402 463 24,900 1,000 Climbing New York Center
Sun 05:02:34 PM 39.9903 -77.0461 284° West 402 463 26,000 545 Climbing New York Center
Sun 05:03:35 PM 40.0183 -77.1869 285° West 402 463 26,000  Level New York Center
Sun 05:04:35 PM 40.0417 -77.3275 282° West 402 463 26,000  Level New York Center
Sun 05:05:36 PM 40.0672 -77.4708 283° West 402 463 26,000  Level New York Center
Sun 05:06:47 PM 40.1000 -77.6408 284° West 405 466 26,000  Level Cleveland Center
Sun 05:07:47 PM 40.1222 -77.7728 282° West 411 473 26,000  Level Cleveland Center
Sun 05:08:47 PM 40.1344 -77.9408 275° West 402 463 26,000  Level Cleveland Center
Sun 05:09:47 PM 40.1358 -78.0900 271° West 402 463 26,000  Level Cleveland Center
Sun 05:10:47 PM 40.1367 -78.2367 270° West 402 463 26,000  Level Cleveland Center
Sun 05:11:47 PM 40.1397 -78.3861 272° West 402 463 26,000  Level Cleveland Center
Sun 05:12:47 PM 40.1383 -78.5328 269° West 402 463 26,000  Level Cleveland Center
Sun 05:13:47 PM 40.1408 -78.6792 271° West 402 463 26,000  Level Cleveland Center
Sun 05:14:47 PM 40.1433 -78.8286 271° West 402 463 26,000  Level Cleveland Center
Sun 05:15:47 PM 40.1517 -78.9778 274° West 402 463 26,000  Level Cleveland Center
Sun 05:16:47 PM 40.1911 -79.1181 290° West 402 463 26,000  Level Cleveland Center
Sun 05:17:47 PM 40.2325 -79.2586 291° West 413 475 26,000  Level Cleveland Center
Sun 05:18:47 PM 40.2756 -79.3858 294° West 419 482 26,000  Level Cleveland Center
Sun 05:19:47 PM 40.3167 -79.5239 291° West 424 488 26,000 -650 Level Cleveland Center
Sun 05:20:47 PM 40.3594 -79.6622 292° West 419 482 24,700 -1,000 Descending Cleveland Center
Sun 05:21:47 PM 40.4000 -79.8006 291° West 413 475 24,000 -350 Descending Cleveland Center
Sun 05:22:47 PM 40.4406 -79.9392 291° West 408 470 24,000  Level Cleveland Center
Sun 05:23:47 PM 40.4831 -80.0944 290° West 408 470 24,000  Level Cleveland Center
Sun 05:24:47 PM 40.5253 -80.2361 291° West 413 475 24,000  Level Cleveland Center
Sun 05:25:47 PM 40.5672 -80.3728 292° West 413 475 24,000  Level Cleveland Center
Sun 05:26:47 PM 40.6069 -80.5147 290° West 413 475 24,000  Level Cleveland Center
Sun 05:27:47 PM 40.6444 -80.6433 291° West 413 475 24,000  Level Cleveland Center
Sun 05:28:47 PM 40.6986 -80.7886 296° West 408 470 24,000  Level Cleveland Center
Sun 05:29:47 PM 40.7631 -80.9175 303° West 408 470 24,000  Level Cleveland Center
Sun 05:30:47 PM 40.8250 -81.0442 303° West 413 475 24,000  Level Cleveland Center
Sun 05:31:47 PM 40.8786 -81.1625 301° West 420 483 24,000  Level Cleveland Center
Sun 05:32:47 PM 40.9406 -81.2894 303° West 415 478 24,000  Level Cleveland Center
Sun 05:33:47 PM 41.0022 -81.4194 302° West 415 478 24,000  Level Cleveland Center
Sun 05:34:47 PM 41.0697 -81.5608 302° West 415 478 24,000  Level Cleveland Center
Sun 05:35:47 PM 41.1353 -81.6886 304° West 407 468 24,000  Level Cleveland Center
Sun 05:36:47 PM 41.1986 -81.8194 303° West 413 475 24,000  Level Cleveland Center
Sun 05:37:47 PM 41.2578 -81.9475 302° West 413 475 24,000  Level Cleveland Center
Sun 05:38:47 PM 41.3206 -82.0789 302° West 413 475 24,000 -50 Level Cleveland Center
Sun 05:39:47 PM 41.3775 -82.1964 303° West 413 475 23,900 -850 Descending Cleveland Center
Sun 05:40:47 PM 41.4467 -82.3117 309° West 413 475 22,300 -2,150 Descending Cleveland Center
Sun 05:41:47 PM 41.5178 -82.4328 308° West 407 468 19,600 -2,764 Descending Cleveland Center
Sun 05:42:16 PM 41.5542 -82.4950 308° West 393 452 18,200 -2,100 Descending Cleveland Center
Sun 05:42:47 PM 41.5825 -82.5375 312° West 387 445 17,500 -2,259 Descending Cleveland Center
Sun 05:43:41 PM 41.6475 -82.6478 308° West 356 410 15,000 -2,477 Descending Cleveland Center
Sun 05:44:36 PM 41.7000 -82.7411 307° West 341 392 13,000 -1,552 Descending Cleveland Center
Sun 05:45:37 PM 41.7669 -82.8325 314° West 343 395 12,000 -448 Descending Cleveland Center
Sun 05:46:50 PM 41.8422 -82.9189 319° Northwest 276 318 12,000  Level Cleveland Center
Sun 05:47:47 PM 41.8892 -82.9764 318° Northwest 303 349 12,000  Level Cleveland Center
Sun 05:48:46 PM 41.9581 -83.0628 317° Northwest 298 343 12,000  Level Cleveland Center
Sun 05:49:47 PM 42.0172 -83.1322 319° Northwest 303 349 12,000 -94 Level Cleveland Center
Sun 05:50:54 PM 42.0922 -83.2219 318° Northwest 253 291 11,800 -500 Descending Cleveland Center
Sun 05:51:47 PM 42.1483 -83.2242 358° North 255 293 11,000 -1,313 Descending Cleveland Center
Sun 05:53:02 PM 42.2328 -83.1800 21° North 257 296 9,000 -1,662 Descending Cleveland Center
Sun 05:53:57 PM 42.2922 -83.1375 28° Northeast 256 295 7,400 -1,707 Descending Cleveland Center
Sun 05:54:58 PM 42.3556 -83.0925 28° Northeast 247 284 5,700 -1,125 Descending Cleveland Center
Sun 05:56:05 PM 42.4231 -83.0556 22° Northeast 228 262 5,000 -344 Descending Cleveland Center
Sun 05:57:00 PM 42.4492 -83.1128 302° West 186 214 5,000  Level Cleveland Center
Sun 05:58:01 PM 42.4269 -83.1711 243° Southwest 181 208 5,000 -197 Level Cleveland Center
Sun 05:59:02 PM 42.3864 -83.2144 218° Southwest 184 212 4,600 -750 Descending Cleveland Center
Sun 06:00:09 PM 42.3356 -83.2517 208° Southwest 192 221 3,400 -1,077 Descending Cleveland Center
Sun 06:00:59 PM 42.2953 -83.2781 206° Southwest 191 220 2,500 -1,080 Descending Cleveland Center

Login

Don't have an account? Register now (free) for customized features, flight alerts, and more!